sensor_id;sensor_type;location;lat;lon;timestamp;temperature;humidity
4578;DHT22;2301;47.354;8.528;2023-11-21T00:00:02;13.70;73.00
4578;DHT22;2301;47.354;8.528;2023-11-21T00:02:35;13.80;73.40
4578;DHT22;2301;47.354;8.528;2023-11-21T00:05:04;13.90;72.50
4578;DHT22;2301;47.354;8.528;2023-11-21T00:07:34;13.80;71.00
4578;DHT22;2301;47.354;8.528;2023-11-21T00:10:01;13.90;73.00
4578;DHT22;2301;47.354;8.528;2023-11-21T00:12:30;13.80;70.10
4578;DHT22;2301;47.354;8.528;2023-11-21T00:14:59;13.80;69.40
4578;DHT22;2301;47.354;8.528;2023-11-21T00:17:26;13.60;69.70
4578;DHT22;2301;47.354;8.528;2023-11-21T00:19:53;13.80;74.00
4578;DHT22;2301;47.354;8.528;2023-11-21T00:22:20;13.90;75.50
4578;DHT22;2301;47.354;8.528;2023-11-21T00:24:48;14.10;76.20
4578;DHT22;2301;47.354;8.528;2023-11-21T00:27:15;14.10;72.70
4578;DHT22;2301;47.354;8.528;2023-11-21T00:29:42;13.90;67.40
4578;DHT22;2301;47.354;8.528;2023-11-21T00:32:09;14.00;71.10
4578;DHT22;2301;47.354;8.528;2023-11-21T00:34:36;13.90;73.10
4578;DHT22;2301;47.354;8.528;2023-11-21T00:37:03;13.90;69.70
4578;DHT22;2301;47.354;8.528;2023-11-21T00:39:30;14.00;72.10
4578;DHT22;2301;47.354;8.528;2023-11-21T00:42:00;14.10;73.60
4578;DHT22;2301;47.354;8.528;2023-11-21T00:44:27;14.20;73.30
4578;DHT22;2301;47.354;8.528;2023-11-21T00:46:54;14.20;74.00
4578;DHT22;2301;47.354;8.528;2023-11-21T00:49:21;14.20;71.00
4578;DHT22;2301;47.354;8.528;2023-11-21T00:51:48;14.20;70.50
4578;DHT22;2301;47.354;8.528;2023-11-21T00:54:15;14.10;71.80
4578;DHT22;2301;47.354;8.528;2023-11-21T00:56:42;14.20;73.10
4578;DHT22;2301;47.354;8.528;2023-11-21T00:59:11;14.20;72.10
4578;DHT22;2301;47.354;8.528;2023-11-21T01:01:38;14.20;71.80
4578;DHT22;2301;47.354;8.528;2023-11-21T01:04:05;14.20;72.40
4578;DHT22;2301;47.354;8.528;2023-11-21T01:06:32;14.30;72.50
4578;DHT22;2301;47.354;8.528;2023-11-21T01:08:59;14.40;73.50
4578;DHT22;2301;47.354;8.528;2023-11-21T01:11:26;14.30;68.50
4578;DHT22;2301;47.354;8.528;2023-11-21T01:13:53;14.40;70.00
4578;DHT22;2301;47.354;8.528;2023-11-21T01:16:22;14.40;70.20
4578;DHT22;2301;47.354;8.528;2023-11-21T01:18:50;14.40;72.30
4578;DHT22;2301;47.354;8.528;2023-11-21T01:21:17;14.40;69.70
4578;DHT22;2301;47.354;8.528;2023-11-21T01:23:44;14.40;71.90
4578;DHT22;2301;47.354;8.528;2023-11-21T01:26:11;14.50;70.60
4578;DHT22;2301;47.354;8.528;2023-11-21T01:28:38;14.40;68.20
4578;DHT22;2301;47.354;8.528;2023-11-21T01:31:05;14.30;69.90
4578;DHT22;2301;47.354;8.528;2023-11-21T01:33:34;14.40;71.60
4578;DHT22;2301;47.354;8.528;2023-11-21T01:36:01;14.50;72.10
4578;DHT22;2301;47.354;8.528;2023-11-21T01:38:28;14.50;72.00
4578;DHT22;2301;47.354;8.528;2023-11-21T01:40:55;14.50;69.80
4578;DHT22;2301;47.354;8.528;2023-11-21T01:43:22;14.60;71.80
4578;DHT22;2301;47.354;8.528;2023-11-21T01:45:49;14.50;70.60
4578;DHT22;2301;47.354;8.528;2023-11-21T01:48:16;14.60;71.40
4578;DHT22;2301;47.354;8.528;2023-11-21T01:50:45;14.50;71.50
4578;DHT22;2301;47.354;8.528;2023-11-21T01:53:12;14.60;72.40
4578;DHT22;2301;47.354;8.528;2023-11-21T01:55:40;14.60;71.70
4578;DHT22;2301;47.354;8.528;2023-11-21T01:58:09;14.60;71.40
4578;DHT22;2301;47.354;8.528;2023-11-21T02:00:37;14.70;72.80
4578;DHT22;2301;47.354;8.528;2023-11-21T02:03:04;14.70;71.30
4578;DHT22;2301;47.354;8.528;2023-11-21T02:05:32;14.70;72.10
4578;DHT22;2301;47.354;8.528;2023-11-21T02:08:01;14.70;71.70
4578;DHT22;2301;47.354;8.528;2023-11-21T02:10:30;14.60;69.10
4578;DHT22;2301;47.354;8.528;2023-11-21T02:12:57;14.70;71.50
4578;DHT22;2301;47.354;8.528;2023-11-21T02:15:24;14.70;70.30
4578;DHT22;2301;47.354;8.528;2023-11-21T02:17:55;14.70;70.50
4578;DHT22;2301;47.354;8.528;2023-11-21T02:20:31;14.70;69.90
4578;DHT22;2301;47.354;8.528;2023-11-21T02:23:02;14.60;70.50
4578;DHT22;2301;47.354;8.528;2023-11-21T02:25:31;14.60;70.50
4578;DHT22;2301;47.354;8.528;2023-11-21T02:28:00;14.60;69.90
4578;DHT22;2301;47.354;8.528;2023-11-21T02:30:27;14.60;69.40
4578;DHT22;2301;47.354;8.528;2023-11-21T02:32:54;14.50;69.70
4578;DHT22;2301;47.354;8.528;2023-11-21T02:35:22;14.50;71.10
4578;DHT22;2301;47.354;8.528;2023-11-21T02:37:51;14.60;71.20
4578;DHT22;2301;47.354;8.528;2023-11-21T02:40:19;14.50;72.30
4578;DHT22;2301;47.354;8.528;2023-11-21T02:42:47;14.60;73.60
4578;DHT22;2301;47.354;8.528;2023-11-21T02:45:17;14.60;74.40
4578;DHT22;2301;47.354;8.528;2023-11-21T02:47:46;14.60;74.00
4578;DHT22;2301;47.354;8.528;2023-11-21T02:50:14;14.50;74.90
4578;DHT22;2301;47.354;8.528;2023-11-21T02:52:41;14.50;74.30
4578;DHT22;2301;47.354;8.528;2023-11-21T02:55:09;14.50;75.10
4578;DHT22;2301;47.354;8.528;2023-11-21T02:57:38;14.50;75.50
4578;DHT22;2301;47.354;8.528;2023-11-21T03:00:06;14.40;75.20
4578;DHT22;2301;47.354;8.528;2023-11-21T03:02:33;14.40;75.70
4578;DHT22;2301;47.354;8.528;2023-11-21T03:05:05;14.30;75.20
4578;DHT22;2301;47.354;8.528;2023-11-21T03:07:32;14.20;74.90
4578;DHT22;2301;47.354;8.528;2023-11-21T03:09:59;14.00;72.50
4578;DHT22;2301;47.354;8.528;2023-11-21T03:12:26;13.90;73.50
4578;DHT22;2301;47.354;8.528;2023-11-21T03:14:54;13.90;75.70
4578;DHT22;2301;47.354;8.528;2023-11-21T03:17:21;13.90;76.30
4578;DHT22;2301;47.354;8.528;2023-11-21T03:19:48;13.90;77.00
4578;DHT22;2301;47.354;8.528;2023-11-21T03:22:15;13.90;76.30
4578;DHT22;2301;47.354;8.528;2023-11-21T03:24:42;13.90;76.90
4578;DHT22;2301;47.354;8.528;2023-11-21T03:27:09;13.90;77.80
4578;DHT22;2301;47.354;8.528;2023-11-21T03:29:36;13.90;77.20
4578;DHT22;2301;47.354;8.528;2023-11-21T03:32:05;13.90;78.30
4578;DHT22;2301;47.354;8.528;2023-11-21T03:34:32;14.00;79.00
4578;DHT22;2301;47.354;8.528;2023-11-21T03:36:59;14.00;78.60
4578;DHT22;2301;47.354;8.528;2023-11-21T03:39:26;14.00;75.00
4578;DHT22;2301;47.354;8.528;2023-11-21T03:41:55;14.00;75.10
4578;DHT22;2301;47.354;8.528;2023-11-21T03:44:22;14.00;77.60
4578;DHT22;2301;47.354;8.528;2023-11-21T03:46:49;13.90;73.90
4578;DHT22;2301;47.354;8.528;2023-11-21T03:49:17;13.80;71.70
4578;DHT22;2301;47.354;8.528;2023-11-21T03:51:44;13.70;73.80
4578;DHT22;2301;47.354;8.528;2023-11-21T03:54:10;13.70;75.20
4578;DHT22;2301;47.354;8.528;2023-11-21T03:56:37;13.80;75.90
4578;DHT22;2301;47.354;8.528;2023-11-21T03:59:04;13.80;76.50
4578;DHT22;2301;47.354;8.528;2023-11-21T04:01:30;13.70;74.60
4578;DHT22;2301;47.354;8.528;2023-11-21T04:03:57;13.70;73.40
4578;DHT22;2301;47.354;8.528;2023-11-21T04:06:26;13.60;74.00
4578;DHT22;2301;47.354;8.528;2023-11-21T04:08:53;13.50;72.20
4578;DHT22;2301;47.354;8.528;2023-11-21T04:11:20;13.50;74.50
4578;DHT22;2301;47.354;8.528;2023-11-21T04:13:47;13.40;74.10
4578;DHT22;2301;47.354;8.528;2023-11-21T04:16:14;13.30;74.20
4578;DHT22;2301;47.354;8.528;2023-11-21T04:18:40;13.40;77.30
4578;DHT22;2301;47.354;8.528;2023-11-21T04:21:08;13.30;77.40
4578;DHT22;2301;47.354;8.528;2023-11-21T04:23:36;13.30;75.70
4578;DHT22;2301;47.354;8.528;2023-11-21T04:26:03;13.30;76.60
4578;DHT22;2301;47.354;8.528;2023-11-21T04:28:30;13.20;76.60
4578;DHT22;2301;47.354;8.528;2023-11-21T04:30:57;13.20;75.00
4578;DHT22;2301;47.354;8.528;2023-11-21T04:33:24;13.30;77.60
4578;DHT22;2301;47.354;8.528;2023-11-21T04:35:51;13.40;78.90
4578;DHT22;2301;47.354;8.528;2023-11-21T04:38:18;13.30;77.00
4578;DHT22;2301;47.354;8.528;2023-11-21T04:40:47;13.30;77.10
4578;DHT22;2301;47.354;8.528;2023-11-21T04:43:14;13.30;75.70
4578;DHT22;2301;47.354;8.528;2023-11-21T04:45:41;13.20;77.70
4578;DHT22;2301;47.354;8.528;2023-11-21T04:48:08;13.20;78.20
4578;DHT22;2301;47.354;8.528;2023-11-21T04:50:35;13.20;78.90
4578;DHT22;2301;47.354;8.528;2023-11-21T04:53:02;13.20;78.60
4578;DHT22;2301;47.354;8.528;2023-11-21T04:55:29;13.20;77.80
4578;DHT22;2301;47.354;8.528;2023-11-21T04:57:58;13.30;78.20
4578;DHT22;2301;47.354;8.528;2023-11-21T05:00:25;13.30;79.20
4578;DHT22;2301;47.354;8.528;2023-11-21T05:02:52;13.30;78.90
4578;DHT22;2301;47.354;8.528;2023-11-21T05:05:19;13.10;78.40
4578;DHT22;2301;47.354;8.528;2023-11-21T05:07:46;13.30;82.00
4578;DHT22;2301;47.354;8.528;2023-11-21T05:10:14;13.20;78.60
4578;DHT22;2301;47.354;8.528;2023-11-21T05:12:42;13.20;78.60
4578;DHT22;2301;47.354;8.528;2023-11-21T05:15:13;13.30;82.10
4578;DHT22;2301;47.354;8.528;2023-11-21T05:17:41;13.40;82.20
4578;DHT22;2301;47.354;8.528;2023-11-21T05:20:09;13.60;83.00
4578;DHT22;2301;47.354;8.528;2023-11-21T05:22:37;13.60;78.60
4578;DHT22;2301;47.354;8.528;2023-11-21T05:25:05;13.30;73.90
4578;DHT22;2301;47.354;8.528;2023-11-21T05:27:33;13.00;72.80
4578;DHT22;2301;47.354;8.528;2023-11-21T05:30:01;12.80;73.50
4578;DHT22;2301;47.354;8.528;2023-11-21T05:32:29;12.60;72.60
4578;DHT22;2301;47.354;8.528;2023-11-21T05:34:57;12.40;72.50
4578;DHT22;2301;47.354;8.528;2023-11-21T05:37:24;12.10;72.60
4578;DHT22;2301;47.354;8.528;2023-11-21T05:39:56;12.00;72.40
4578;DHT22;2301;47.354;8.528;2023-11-21T05:42:23;11.90;72.90
4578;DHT22;2301;47.354;8.528;2023-11-21T05:44:50;11.80;73.00
4578;DHT22;2301;47.354;8.528;2023-11-21T05:47:16;11.70;73.10
4578;DHT22;2301;47.354;8.528;2023-11-21T05:49:45;11.60;73.20
4578;DHT22;2301;47.354;8.528;2023-11-21T05:52:15;11.60;73.50
4578;DHT22;2301;47.354;8.528;2023-11-21T05:54:42;11.50;73.50
4578;DHT22;2301;47.354;8.528;2023-11-21T05:57:09;11.40;73.70
4578;DHT22;2301;47.354;8.528;2023-11-21T05:59:37;11.40;73.50
4578;DHT22;2301;47.354;8.528;2023-11-21T06:02:04;11.30;73.60
4578;DHT22;2301;47.354;8.528;2023-11-21T06:04:30;11.30;74.10
4578;DHT22;2301;47.354;8.528;2023-11-21T06:06:59;11.20;74.60
4578;DHT22;2301;47.354;8.528;2023-11-21T06:09:26;11.20;75.10
4578;DHT22;2301;47.354;8.528;2023-11-21T06:11:53;11.10;75.20
4578;DHT22;2301;47.354;8.528;2023-11-21T06:14:20;11.00;75.70
4578;DHT22;2301;47.354;8.528;2023-11-21T06:16:47;11.00;75.90
4578;DHT22;2301;47.354;8.528;2023-11-21T06:19:16;11.00;76.20
4578;DHT22;2301;47.354;8.528;2023-11-21T06:21:45;11.00;76.40
4578;DHT22;2301;47.354;8.528;2023-11-21T06:24:14;11.00;76.60
4578;DHT22;2301;47.354;8.528;2023-11-21T06:26:41;11.00;76.80
4578;DHT22;2301;47.354;8.528;2023-11-21T06:29:09;11.00;77.00
4578;DHT22;2301;47.354;8.528;2023-11-21T06:31:36;11.00;76.90
4578;DHT22;2301;47.354;8.528;2023-11-21T06:34:06;11.00;76.90
4578;DHT22;2301;47.354;8.528;2023-11-21T06:36:34;10.90;77.00
4578;DHT22;2301;47.354;8.528;2023-11-21T06:39:01;10.90;77.00
4578;DHT22;2301;47.354;8.528;2023-11-21T06:41:30;11.00;77.20
4578;DHT22;2301;47.354;8.528;2023-11-21T06:43:57;11.00;77.50
4578;DHT22;2301;47.354;8.528;2023-11-21T06:46:24;10.90;77.80
4578;DHT22;2301;47.354;8.528;2023-11-21T06:48:51;11.00;78.30
4578;DHT22;2301;47.354;8.528;2023-11-21T06:51:18;11.00;78.40
4578;DHT22;2301;47.354;8.528;2023-11-21T06:53:45;10.90;78.30
4578;DHT22;2301;47.354;8.528;2023-11-21T06:56:16;10.90;78.10
4578;DHT22;2301;47.354;8.528;2023-11-21T06:58:45;10.90;78.10
4578;DHT22;2301;47.354;8.528;2023-11-21T07:01:12;10.90;78.10
4578;DHT22;2301;47.354;8.528;2023-11-21T07:03:41;10.90;78.20
4578;DHT22;2301;47.354;8.528;2023-11-21T07:06:08;10.80;78.10
4578;DHT22;2301;47.354;8.528;2023-11-21T07:08:35;10.80;78.00
4578;DHT22;2301;47.354;8.528;2023-11-21T07:11:02;10.80;78.10
4578;DHT22;2301;47.354;8.528;2023-11-21T07:13:29;10.80;78.10
4578;DHT22;2301;47.354;8.528;2023-11-21T07:15:58;10.70;78.20
4578;DHT22;2301;47.354;8.528;2023-11-21T07:18:26;10.70;78.50
4578;DHT22;2301;47.354;8.528;2023-11-21T07:20:53;10.70;78.60
4578;DHT22;2301;47.354;8.528;2023-11-21T07:23:20;10.70;78.50
4578;DHT22;2301;47.354;8.528;2023-11-21T07:25:48;10.70;78.50
4578;DHT22;2301;47.354;8.528;2023-11-21T07:28:15;10.70;78.60
4578;DHT22;2301;47.354;8.528;2023-11-21T07:30:42;10.70;78.60
4578;DHT22;2301;47.354;8.528;2023-11-21T07:33:11;10.70;78.50
4578;DHT22;2301;47.354;8.528;2023-11-21T07:35:38;10.70;78.50
4578;DHT22;2301;47.354;8.528;2023-11-21T07:38:05;10.70;78.40
4578;DHT22;2301;47.354;8.528;2023-11-21T07:40:32;10.60;78.60
4578;DHT22;2301;47.354;8.528;2023-11-21T07:42:58;10.60;78.90
4578;DHT22;2301;47.354;8.528;2023-11-21T07:45:28;10.70;79.20
4578;DHT22;2301;47.354;8.528;2023-11-21T07:47:55;10.60;79.80
4578;DHT22;2301;47.354;8.528;2023-11-21T07:50:24;10.60;79.50
4578;DHT22;2301;47.354;8.528;2023-11-21T07:52:52;10.60;79.90
4578;DHT22;2301;47.354;8.528;2023-11-21T07:55:20;10.60;80.00
4578;DHT22;2301;47.354;8.528;2023-11-21T07:57:47;10.60;80.10
4578;DHT22;2301;47.354;8.528;2023-11-21T08:00:14;10.60;80.20
4578;DHT22;2301;47.354;8.528;2023-11-21T08:02:41;10.60;80.40
4578;DHT22;2301;47.354;8.528;2023-11-21T08:05:11;10.60;80.40
4578;DHT22;2301;47.354;8.528;2023-11-21T08:07:39;10.60;80.50
4578;DHT22;2301;47.354;8.528;2023-11-21T08:10:08;10.70;80.80
4578;DHT22;2301;47.354;8.528;2023-11-21T08:12:36;10.70;81.00
4578;DHT22;2301;47.354;8.528;2023-11-21T08:15:05;10.70;81.10
4578;DHT22;2301;47.354;8.528;2023-11-21T08:17:33;10.70;81.00
4578;DHT22;2301;47.354;8.528;2023-11-21T08:20:00;10.80;81.00
4578;DHT22;2301;47.354;8.528;2023-11-21T08:22:29;10.80;80.90
4578;DHT22;2301;47.354;8.528;2023-11-21T08:24:57;10.80;81.10
4578;DHT22;2301;47.354;8.528;2023-11-21T08:27:24;10.90;81.60
4578;DHT22;2301;47.354;8.528;2023-11-21T08:29:51;10.90;81.60
4578;DHT22;2301;47.354;8.528;2023-11-21T08:32:18;10.90;81.60
4578;DHT22;2301;47.354;8.528;2023-11-21T08:34:45;11.00;83.60
4578;DHT22;2301;47.354;8.528;2023-11-21T08:37:16;12.00;94.50
4578;DHT22;2301;47.354;8.528;2023-11-21T08:39:43;12.90;93.50
4578;DHT22;2301;47.354;8.528;2023-11-21T08:42:12;13.00;89.40
4578;DHT22;2301;47.354;8.528;2023-11-21T08:44:39;12.90;85.00
4578;DHT22;2301;47.354;8.528;2023-11-21T08:47:06;12.80;82.90
4578;DHT22;2301;47.354;8.528;2023-11-21T08:49:33;12.50;81.60
4578;DHT22;2301;47.354;8.528;2023-11-21T08:52:00;12.40;81.30
4578;DHT22;2301;47.354;8.528;2023-11-21T08:54:27;12.30;81.20
4578;DHT22;2301;47.354;8.528;2023-11-21T08:56:54;12.20;81.30
4578;DHT22;2301;47.354;8.528;2023-11-21T08:59:25;12.00;81.00
4578;DHT22;2301;47.354;8.528;2023-11-21T09:01:52;12.00;81.10
4578;DHT22;2301;47.354;8.528;2023-11-21T09:04:19;11.90;82.20
4578;DHT22;2301;47.354;8.528;2023-11-21T09:06:46;11.80;81.10
4578;DHT22;2301;47.354;8.528;2023-11-21T09:09:13;11.80;81.20
4578;DHT22;2301;47.354;8.528;2023-11-21T09:11:40;11.80;81.10
4578;DHT22;2301;47.354;8.528;2023-11-21T09:14:09;11.80;81.30
4578;DHT22;2301;47.354;8.528;2023-11-21T09:16:39;11.70;81.40
4578;DHT22;2301;47.354;8.528;2023-11-21T09:19:07;11.70;81.70
4578;DHT22;2301;47.354;8.528;2023-11-21T09:21:37;11.70;81.50
4578;DHT22;2301;47.354;8.528;2023-11-21T09:24:05;11.70;81.40
4578;DHT22;2301;47.354;8.528;2023-11-21T09:26:34;11.70;81.50
4578;DHT22;2301;47.354;8.528;2023-11-21T09:29:01;11.60;81.70
4578;DHT22;2301;47.354;8.528;2023-11-21T09:31:28;11.60;81.50
4578;DHT22;2301;47.354;8.528;2023-11-21T09:33:58;11.60;81.60
4578;DHT22;2301;47.354;8.528;2023-11-21T09:36:25;11.50;81.70
4578;DHT22;2301;47.354;8.528;2023-11-21T09:38:53;11.50;82.00
4578;DHT22;2301;47.354;8.528;2023-11-21T09:41:26;11.40;82.20
4578;DHT22;2301;47.354;8.528;2023-11-21T09:43:57;11.40;81.70
4578;DHT22;2301;47.354;8.528;2023-11-21T09:46:28;11.40;81.70
4578;DHT22;2301;47.354;8.528;2023-11-21T09:48:58;11.40;81.60
4578;DHT22;2301;47.354;8.528;2023-11-21T09:51:27;11.30;81.60
4578;DHT22;2301;47.354;8.528;2023-11-21T09:53:59;11.30;81.70
4578;DHT22;2301;47.354;8.528;2023-11-21T09:56:28;11.20;81.90
4578;DHT22;2301;47.354;8.528;2023-11-21T09:58:55;11.20;82.30
4578;DHT22;2301;47.354;8.528;2023-11-21T10:01:25;11.20;82.50
4578;DHT22;2301;47.354;8.528;2023-11-21T10:03:53;11.20;82.60
4578;DHT22;2301;47.354;8.528;2023-11-21T10:06:24;11.20;83.70
4578;DHT22;2301;47.354;8.528;2023-11-21T10:08:52;11.30;83.20
4578;DHT22;2301;47.354;8.528;2023-11-21T10:11:23;11.30;83.10
4578;DHT22;2301;47.354;8.528;2023-11-21T10:13:53;11.30;83.30
4578;DHT22;2301;47.354;8.528;2023-11-21T10:16:26;11.30;83.30
4578;DHT22;2301;47.354;8.528;2023-11-21T10:18:53;11.40;83.60
4578;DHT22;2301;47.354;8.528;2023-11-21T10:21:22;11.40;84.10
4578;DHT22;2301;47.354;8.528;2023-11-21T10:23:50;11.40;84.20
4578;DHT22;2301;47.354;8.528;2023-11-21T10:26:20;11.50;84.60
4578;DHT22;2301;47.354;8.528;2023-11-21T10:28:56;11.50;84.60
4578;DHT22;2301;47.354;8.528;2023-11-21T10:31:24;11.60;84.80
4578;DHT22;2301;47.354;8.528;2023-11-21T10:33:51;11.60;84.10
4578;DHT22;2301;47.354;8.528;2023-11-21T10:36:27;11.60;83.40
4578;DHT22;2301;47.354;8.528;2023-11-21T10:38:54;11.70;83.30
4578;DHT22;2301;47.354;8.528;2023-11-21T10:41:22;11.70;83.00
4578;DHT22;2301;47.354;8.528;2023-11-21T10:43:53;11.70;82.90
4578;DHT22;2301;47.354;8.528;2023-11-21T10:46:21;11.70;82.90
4578;DHT22;2301;47.354;8.528;2023-11-21T10:48:52;11.70;83.00
4578;DHT22;2301;47.354;8.528;2023-11-21T10:51:20;11.80;83.00
4578;DHT22;2301;47.354;8.528;2023-11-21T10:53:49;11.80;82.80
4578;DHT22;2301;47.354;8.528;2023-11-21T10:56:18;11.80;82.60
4578;DHT22;2301;47.354;8.528;2023-11-21T10:58:48;11.90;82.70
4578;DHT22;2301;47.354;8.528;2023-11-21T11:01:17;11.90;82.60
4578;DHT22;2301;47.354;8.528;2023-11-21T11:03:47;11.90;82.60
4578;DHT22;2301;47.354;8.528;2023-11-21T11:06:15;12.00;82.80
4578;DHT22;2301;47.354;8.528;2023-11-21T11:08:44;12.00;82.50
4578;DHT22;2301;47.354;8.528;2023-11-21T11:11:12;12.00;82.20
4578;DHT22;2301;47.354;8.528;2023-11-21T11:13:44;12.00;82.10
4578;DHT22;2301;47.354;8.528;2023-11-21T11:16:12;12.00;82.40
4578;DHT22;2301;47.354;8.528;2023-11-21T11:18:43;12.00;81.80
4578;DHT22;2301;47.354;8.528;2023-11-21T11:21:23;12.10;81.30
4578;DHT22;2301;47.354;8.528;2023-11-21T11:24:11;12.10;81.40
4578;DHT22;2301;47.354;8.528;2023-11-21T11:26:47;12.20;81.60
4578;DHT22;2301;47.354;8.528;2023-11-21T11:29:23;12.20;81.70
4578;DHT22;2301;47.354;8.528;2023-11-21T11:32:04;12.20;81.40
4578;DHT22;2301;47.354;8.528;2023-11-21T11:34:40;12.30;81.50
4578;DHT22;2301;47.354;8.528;2023-11-21T11:37:09;12.40;81.40
4578;DHT22;2301;47.354;8.528;2023-11-21T11:39:37;12.40;80.70
4578;DHT22;2301;47.354;8.528;2023-11-21T11:42:11;12.40;81.00
4578;DHT22;2301;47.354;8.528;2023-11-21T11:44:51;12.40;80.60
4578;DHT22;2301;47.354;8.528;2023-11-21T11:47:22;12.40;80.30
4578;DHT22;2301;47.354;8.528;2023-11-21T11:50:04;12.50;80.50
4578;DHT22;2301;47.354;8.528;2023-11-21T11:52:38;12.50;80.70
4578;DHT22;2301;47.354;8.528;2023-11-21T11:55:08;12.40;80.30
4578;DHT22;2301;47.354;8.528;2023-11-21T11:57:38;12.40;80.50
4578;DHT22;2301;47.354;8.528;2023-11-21T12:02:47;12.50;80.70
4578;DHT22;2301;47.354;8.528;2023-11-21T12:05:15;12.50;80.50
4578;DHT22;2301;47.354;8.528;2023-11-21T12:07:48;12.50;80.10
4578;DHT22;2301;47.354;8.528;2023-11-21T12:10:17;12.60;80.00
4578;DHT22;2301;47.354;8.528;2023-11-21T12:12:47;12.60;80.00
4578;DHT22;2301;47.354;8.528;2023-11-21T12:15:15;12.60;79.70
4578;DHT22;2301;47.354;8.528;2023-11-21T12:17:44;12.70;79.60
4578;DHT22;2301;47.354;8.528;2023-11-21T12:20:12;12.70;79.30
4578;DHT22;2301;47.354;8.528;2023-11-21T12:22:44;12.70;79.40
4578;DHT22;2301;47.354;8.528;2023-11-21T12:25:14;12.80;79.40
4578;DHT22;2301;47.354;8.528;2023-11-21T12:27:47;12.90;79.20
4578;DHT22;2301;47.354;8.528;2023-11-21T12:30:16;13.00;79.20
4578;DHT22;2301;47.354;8.528;2023-11-21T12:32:44;13.10;79.10
4578;DHT22;2301;47.354;8.528;2023-11-21T12:35:13;13.10;78.70
4578;DHT22;2301;47.354;8.528;2023-11-21T12:37:42;13.20;77.80
4578;DHT22;2301;47.354;8.528;2023-11-21T12:40:10;13.20;77.00
4578;DHT22;2301;47.354;8.528;2023-11-21T12:42:39;13.20;76.50
4578;DHT22;2301;47.354;8.528;2023-11-21T12:45:20;13.20;76.20
4578;DHT22;2301;47.354;8.528;2023-11-21T12:47:50;13.20;76.20
4578;DHT22;2301;47.354;8.528;2023-11-21T12:50:19;13.10;76.10
4578;DHT22;2301;47.354;8.528;2023-11-21T12:52:50;13.10;76.40
4578;DHT22;2301;47.354;8.528;2023-11-21T12:55:20;13.10;76.60
4578;DHT22;2301;47.354;8.528;2023-11-21T12:57:49;13.10;76.50
4578;DHT22;2301;47.354;8.528;2023-11-21T13:00:19;13.10;76.50
4578;DHT22;2301;47.354;8.528;2023-11-21T13:02:54;13.00;76.20
4578;DHT22;2301;47.354;8.528;2023-11-21T13:05:30;13.00;76.00
4578;DHT22;2301;47.354;8.528;2023-11-21T13:07:59;13.00;76.50
4578;DHT22;2301;47.354;8.528;2023-11-21T13:10:29;13.00;76.60
4578;DHT22;2301;47.354;8.528;2023-11-21T13:12:57;13.00;76.50
4578;DHT22;2301;47.354;8.528;2023-11-21T13:15:32;13.00;76.60
4578;DHT22;2301;47.354;8.528;2023-11-21T13:18:00;12.90;76.30
4578;DHT22;2301;47.354;8.528;2023-11-21T13:20:28;12.90;76.00
4578;DHT22;2301;47.354;8.528;2023-11-21T13:22:56;12.90;75.80
4578;DHT22;2301;47.354;8.528;2023-11-21T13:25:25;12.90;76.20
4578;DHT22;2301;47.354;8.528;2023-11-21T13:27:53;12.90;76.50
4578;DHT22;2301;47.354;8.528;2023-11-21T13:30:20;12.90;76.80
4578;DHT22;2301;47.354;8.528;2023-11-21T13:32:54;12.80;76.70
4578;DHT22;2301;47.354;8.528;2023-11-21T13:35:23;12.80;76.60
4578;DHT22;2301;47.354;8.528;2023-11-21T13:37:57;12.80;76.60
4578;DHT22;2301;47.354;8.528;2023-11-21T13:40:26;12.70;76.60
4578;DHT22;2301;47.354;8.528;2023-11-21T13:42:54;12.70;76.70
4578;DHT22;2301;47.354;8.528;2023-11-21T13:45:23;12.70;76.70
4578;DHT22;2301;47.354;8.528;2023-11-21T13:47:54;12.70;76.80
4578;DHT22;2301;47.354;8.528;2023-11-21T13:50:23;12.60;77.00
4578;DHT22;2301;47.354;8.528;2023-11-21T13:52:58;12.70;77.30
4578;DHT22;2301;47.354;8.528;2023-11-21T13:55:28;12.60;77.50
4578;DHT22;2301;47.354;8.528;2023-11-21T13:57:55;12.60;77.80
4578;DHT22;2301;47.354;8.528;2023-11-21T14:00:22;12.60;78.20
4578;DHT22;2301;47.354;8.528;2023-11-21T14:03:05;12.50;78.80
4578;DHT22;2301;47.354;8.528;2023-11-21T14:05:37;12.50;79.30
4578;DHT22;2301;47.354;8.528;2023-11-21T14:08:05;12.50;79.30
4578;DHT22;2301;47.354;8.528;2023-11-21T14:10:32;12.40;79.00
4578;DHT22;2301;47.354;8.528;2023-11-21T14:13:06;12.40;79.10
4578;DHT22;2301;47.354;8.528;2023-11-21T14:15:33;12.40;80.20
4578;DHT22;2301;47.354;8.528;2023-11-21T14:18:05;12.30;79.60
4578;DHT22;2301;47.354;8.528;2023-11-21T14:20:36;12.30;79.90
4578;DHT22;2301;47.354;8.528;2023-11-21T14:23:03;12.20;79.80
4578;DHT22;2301;47.354;8.528;2023-11-21T14:25:31;12.20;80.10
4578;DHT22;2301;47.354;8.528;2023-11-21T14:27:58;12.20;80.70
4578;DHT22;2301;47.354;8.528;2023-11-21T14:30:25;12.20;81.30
4578;DHT22;2301;47.354;8.528;2023-11-21T14:32:54;12.20;81.40
4578;DHT22;2301;47.354;8.528;2023-11-21T14:35:23;12.20;81.40
4578;DHT22;2301;47.354;8.528;2023-11-21T14:37:50;12.20;81.50
4578;DHT22;2301;47.354;8.528;2023-11-21T14:40:17;12.20;81.70
4578;DHT22;2301;47.354;8.528;2023-11-21T14:42:47;12.10;81.50
4578;DHT22;2301;47.354;8.528;2023-11-21T14:45:14;12.10;81.80
4578;DHT22;2301;47.354;8.528;2023-11-21T14:47:45;12.10;82.10
4578;DHT22;2301;47.354;8.528;2023-11-21T14:50:20;12.10;82.10
4578;DHT22;2301;47.354;8.528;2023-11-21T14:53:08;12.10;81.50
4578;DHT22;2301;47.354;8.528;2023-11-21T14:55:38;12.10;81.40
4578;DHT22;2301;47.354;8.528;2023-11-21T14:58:19;12.00;81.10
4578;DHT22;2301;47.354;8.528;2023-11-21T15:00:53;12.00;80.90
4578;DHT22;2301;47.354;8.528;2023-11-21T15:03:23;12.00;80.90
4578;DHT22;2301;47.354;8.528;2023-11-21T15:06:09;12.00;80.90
4578;DHT22;2301;47.354;8.528;2023-11-21T15:08:50;12.00;81.00
4578;DHT22;2301;47.354;8.528;2023-11-21T15:11:25;12.00;81.40
4578;DHT22;2301;47.354;8.528;2023-11-21T15:13:56;12.00;81.60
4578;DHT22;2301;47.354;8.528;2023-11-21T15:16:23;11.90;81.30
4578;DHT22;2301;47.354;8.528;2023-11-21T15:18:51;11.90;81.20
4578;DHT22;2301;47.354;8.528;2023-11-21T15:21:20;11.90;81.60
4578;DHT22;2301;47.354;8.528;2023-11-21T15:23:56;11.80;81.70
4578;DHT22;2301;47.354;8.528;2023-11-21T15:26:25;11.90;81.80
4578;DHT22;2301;47.354;8.528;2023-11-21T15:28:52;11.80;82.50
4578;DHT22;2301;47.354;8.528;2023-11-21T15:31:19;11.80;81.60
4578;DHT22;2301;47.354;8.528;2023-11-21T15:33:50;11.80;81.50
4578;DHT22;2301;47.354;8.528;2023-11-21T15:36:17;11.80;81.50
4578;DHT22;2301;47.354;8.528;2023-11-21T15:38:45;11.80;81.60
4578;DHT22;2301;47.354;8.528;2023-11-21T15:41:13;11.80;81.70
4578;DHT22;2301;47.354;8.528;2023-11-21T15:43:40;11.80;81.90
4578;DHT22;2301;47.354;8.528;2023-11-21T15:46:07;11.80;82.10
4578;DHT22;2301;47.354;8.528;2023-11-21T15:48:35;11.80;82.10
4578;DHT22;2301;47.354;8.528;2023-11-21T15:51:04;11.80;82.30
4578;DHT22;2301;47.354;8.528;2023-11-21T15:53:34;11.80;82.40
4578;DHT22;2301;47.354;8.528;2023-11-21T15:56:01;11.80;82.60
4578;DHT22;2301;47.354;8.528;2023-11-21T15:58:31;11.80;82.70
4578;DHT22;2301;47.354;8.528;2023-11-21T16:00:59;11.80;82.80
4578;DHT22;2301;47.354;8.528;2023-11-21T16:03:26;11.80;82.80
4578;DHT22;2301;47.354;8.528;2023-11-21T16:05:54;11.70;83.00
4578;DHT22;2301;47.354;8.528;2023-11-21T16:08:21;11.70;83.10
4578;DHT22;2301;47.354;8.528;2023-11-21T16:10:48;11.70;83.10
4578;DHT22;2301;47.354;8.528;2023-11-21T16:13:15;11.60;83.10